sensor_id;sensor_type;location;lat;lon;timestamp;temperature;humidity
5174;DHT22;2606;50.934;6.934;2022-12-18T00:00:42;-3.50;99.90
5174;DHT22;2606;50.934;6.934;2022-12-18T00:03:08;-3.60;99.90
5174;DHT22;2606;50.934;6.934;2022-12-18T00:05:34;-3.60;99.90
5174;DHT22;2606;50.934;6.934;2022-12-18T00:08:00;-3.60;99.90
5174;DHT22;2606;50.934;6.934;2022-12-18T00:10:27;-3.60;99.90
5174;DHT22;2606;50.934;6.934;2022-12-18T00:12:53;-3.60;99.90
5174;DHT22;2606;50.934;6.934;2022-12-18T00:15:18;-3.60;99.90
5174;DHT22;2606;50.934;6.934;2022-12-18T00:17:44;-3.60;99.90
5174;DHT22;2606;50.934;6.934;2022-12-18T00:20:10;-3.60;99.90
5174;DHT22;2606;50.934;6.934;2022-12-18T00:22:35;-3.60;99.90
5174;DHT22;2606;50.934;6.934;2022-12-18T00:25:01;-3.70;99.90
5174;DHT22;2606;50.934;6.934;2022-12-18T00:27:27;-3.60;99.90
5174;DHT22;2606;50.934;6.934;2022-12-18T00:29:52;-3.70;99.90
5174;DHT22;2606;50.934;6.934;2022-12-18T00:32:18;-3.60;99.90
5174;DHT22;2606;50.934;6.934;2022-12-18T00:34:43;-3.60;99.90
5174;DHT22;2606;50.934;6.934;2022-12-18T00:37:09;-3.60;99.90
5174;DHT22;2606;50.934;6.934;2022-12-18T00:39:35;-3.70;99.90
5174;DHT22;2606;50.934;6.934;2022-12-18T00:42:00;-3.70;99.90
5174;DHT22;2606;50.934;6.934;2022-12-18T00:44:44;-3.70;99.90
5174;DHT22;2606;50.934;6.934;2022-12-18T00:47:10;-3.70;99.90
5174;DHT22;2606;50.934;6.934;2022-12-18T00:49:35;-3.70;99.90
5174;DHT22;2606;50.934;6.934;2022-12-18T00:52:01;-3.70;99.90
5174;DHT22;2606;50.934;6.934;2022-12-18T00:54:27;-3.70;99.90
5174;DHT22;2606;50.934;6.934;2022-12-18T00:56:52;-3.70;99.90
5174;DHT22;2606;50.934;6.934;2022-12-18T00:59:18;-3.70;99.90
5174;DHT22;2606;50.934;6.934;2022-12-18T01:01:44;-3.70;99.90
5174;DHT22;2606;50.934;6.934;2022-12-18T01:04:10;-3.70;99.90
5174;DHT22;2606;50.934;6.934;2022-12-18T01:06:35;-3.70;99.90
5174;DHT22;2606;50.934;6.934;2022-12-18T01:09:01;-3.60;99.90
5174;DHT22;2606;50.934;6.934;2022-12-18T01:11:27;-3.70;99.90
5174;DHT22;2606;50.934;6.934;2022-12-18T01:13:53;-3.70;99.90
5174;DHT22;2606;50.934;6.934;2022-12-18T01:16:20;-3.60;99.90
5174;DHT22;2606;50.934;6.934;2022-12-18T01:18:46;-3.60;99.90
5174;DHT22;2606;50.934;6.934;2022-12-18T01:21:14;-3.70;99.90
5174;DHT22;2606;50.934;6.934;2022-12-18T01:23:41;-3.70;99.90
5174;DHT22;2606;50.934;6.934;2022-12-18T01:26:14;-3.70;99.90
5174;DHT22;2606;50.934;6.934;2022-12-18T01:28:41;-3.70;99.90
5174;DHT22;2606;50.934;6.934;2022-12-18T01:31:22;-3.70;99.90
5174;DHT22;2606;50.934;6.934;2022-12-18T01:33:48;-3.70;99.90
5174;DHT22;2606;50.934;6.934;2022-12-18T01:36:23;-3.70;99.90
5174;DHT22;2606;50.934;6.934;2022-12-18T01:38:49;-3.70;99.90
5174;DHT22;2606;50.934;6.934;2022-12-18T01:41:18;-3.70;99.90
5174;DHT22;2606;50.934;6.934;2022-12-18T01:43:50;-3.70;99.90
5174;DHT22;2606;50.934;6.934;2022-12-18T01:46:18;-3.70;99.90
5174;DHT22;2606;50.934;6.934;2022-12-18T01:48:46;-3.70;99.90
5174;DHT22;2606;50.934;6.934;2022-12-18T01:51:12;-3.70;99.90
5174;DHT22;2606;50.934;6.934;2022-12-18T01:53:40;-3.70;99.90
5174;DHT22;2606;50.934;6.934;2022-12-18T01:56:07;-3.70;99.90
5174;DHT22;2606;50.934;6.934;2022-12-18T02:01:07;-3.70;99.90
5174;DHT22;2606;50.934;6.934;2022-12-18T02:03:33;-3.80;99.90
5174;DHT22;2606;50.934;6.934;2022-12-18T02:08:49;-3.80;99.90
5174;DHT22;2606;50.934;6.934;2022-12-18T02:11:38;-3.80;99.90
5174;DHT22;2606;50.934;6.934;2022-12-18T02:17:01;-3.80;99.90
5174;DHT22;2606;50.934;6.934;2022-12-18T02:19:50;-3.80;99.90
5174;DHT22;2606;50.934;6.934;2022-12-18T02:22:29;-3.70;99.90
5174;DHT22;2606;50.934;6.934;2022-12-18T02:25:13;-3.80;99.90
5174;DHT22;2606;50.934;6.934;2022-12-18T02:27:45;-3.80;99.90
5174;DHT22;2606;50.934;6.934;2022-12-18T02:30:12;-3.80;99.90
5174;DHT22;2606;50.934;6.934;2022-12-18T02:32:42;-3.80;99.90
5174;DHT22;2606;50.934;6.934;2022-12-18T02:35:12;-3.80;99.90
5174;DHT22;2606;50.934;6.934;2022-12-18T02:37:40;-3.80;99.90
5174;DHT22;2606;50.934;6.934;2022-12-18T02:40:09;-3.80;99.90
5174;DHT22;2606;50.934;6.934;2022-12-18T02:42:36;-3.90;99.90
5174;DHT22;2606;50.934;6.934;2022-12-18T02:45:01;-3.80;99.90
5174;DHT22;2606;50.934;6.934;2022-12-18T02:47:30;-3.90;99.90
5174;DHT22;2606;50.934;6.934;2022-12-18T02:59:06;-3.90;99.90
5174;DHT22;2606;50.934;6.934;2022-12-18T03:01:21;-3.80;99.90
5174;DHT22;2606;50.934;6.934;2022-12-18T03:03:59;-3.90;99.90
5174;DHT22;2606;50.934;6.934;2022-12-18T03:06:37;-3.80;99.90
5174;DHT22;2606;50.934;6.934;2022-12-18T03:09:08;-3.80;99.90
5174;DHT22;2606;50.934;6.934;2022-12-18T03:11:37;-3.80;99.90
5174;DHT22;2606;50.934;6.934;2022-12-18T03:14:23;-3.80;99.90
5174;DHT22;2606;50.934;6.934;2022-12-18T03:16:57;-3.80;99.90
5174;DHT22;2606;50.934;6.934;2022-12-18T03:19:27;-3.80;99.90
5174;DHT22;2606;50.934;6.934;2022-12-18T03:21:56;-3.80;99.90
5174;DHT22;2606;50.934;6.934;2022-12-18T03:24:23;-3.80;99.90
5174;DHT22;2606;50.934;6.934;2022-12-18T03:26:53;-3.80;99.90
5174;DHT22;2606;50.934;6.934;2022-12-18T03:29:45;-3.90;99.90
5174;DHT22;2606;50.934;6.934;2022-12-18T03:32:12;-3.90;99.90
5174;DHT22;2606;50.934;6.934;2022-12-18T03:34:42;-3.90;99.90
5174;DHT22;2606;50.934;6.934;2022-12-18T03:37:11;-3.90;99.90
5174;DHT22;2606;50.934;6.934;2022-12-18T03:39:37;-3.90;99.90
5174;DHT22;2606;50.934;6.934;2022-12-18T03:42:21;-3.90;99.90
5174;DHT22;2606;50.934;6.934;2022-12-18T03:45:13;-4.00;99.90
5174;DHT22;2606;50.934;6.934;2022-12-18T03:47:44;-4.00;99.90
5174;DHT22;2606;50.934;6.934;2022-12-18T03:50:21;-4.00;99.90
5174;DHT22;2606;50.934;6.934;2022-12-18T03:53:11;-4.00;99.90
5174;DHT22;2606;50.934;6.934;2022-12-18T03:55:41;-4.00;99.90
5174;DHT22;2606;50.934;6.934;2022-12-18T03:58:09;-4.00;99.90
5174;DHT22;2606;50.934;6.934;2022-12-18T04:00:36;-4.00;99.90
5174;DHT22;2606;50.934;6.934;2022-12-18T04:03:04;-4.00;99.90
5174;DHT22;2606;50.934;6.934;2022-12-18T04:05:33;-4.00;99.90
5174;DHT22;2606;50.934;6.934;2022-12-18T04:07:59;-4.00;99.90
5174;DHT22;2606;50.934;6.934;2022-12-18T04:10:24;-4.00;99.90
5174;DHT22;2606;50.934;6.934;2022-12-18T04:12:50;-4.00;99.90
5174;DHT22;2606;50.934;6.934;2022-12-18T04:15:15;-4.00;99.90
5174;DHT22;2606;50.934;6.934;2022-12-18T04:17:47;-4.00;99.90
5174;DHT22;2606;50.934;6.934;2022-12-18T04:20:13;-4.00;99.90
5174;DHT22;2606;50.934;6.934;2022-12-18T04:22:38;-4.00;99.90
5174;DHT22;2606;50.934;6.934;2022-12-18T04:25:04;-4.10;99.90
5174;DHT22;2606;50.934;6.934;2022-12-18T04:27:30;-4.00;99.90
5174;DHT22;2606;50.934;6.934;2022-12-18T04:29:55;-4.00;99.90
5174;DHT22;2606;50.934;6.934;2022-12-18T04:32:21;-4.10;99.90
5174;DHT22;2606;50.934;6.934;2022-12-18T04:34:47;-4.10;99.90
5174;DHT22;2606;50.934;6.934;2022-12-18T04:37:12;-4.10;99.90
5174;DHT22;2606;50.934;6.934;2022-12-18T04:39:38;-4.10;99.90
5174;DHT22;2606;50.934;6.934;2022-12-18T04:42:04;-4.10;99.90
5174;DHT22;2606;50.934;6.934;2022-12-18T04:44:30;-4.10;99.90
5174;DHT22;2606;50.934;6.934;2022-12-18T04:46:55;-4.10;99.90
5174;DHT22;2606;50.934;6.934;2022-12-18T04:49:21;-4.20;99.90
5174;DHT22;2606;50.934;6.934;2022-12-18T04:51:47;-4.20;99.90
5174;DHT22;2606;50.934;6.934;2022-12-18T04:54:12;-4.20;99.90
5174;DHT22;2606;50.934;6.934;2022-12-18T04:56:38;-4.20;99.90
5174;DHT22;2606;50.934;6.934;2022-12-18T04:59:03;-4.10;99.90
5174;DHT22;2606;50.934;6.934;2022-12-18T05:01:30;-4.30;99.90
5174;DHT22;2606;50.934;6.934;2022-12-18T05:03:55;-4.30;99.90
5174;DHT22;2606;50.934;6.934;2022-12-18T05:06:21;-4.30;99.90
5174;DHT22;2606;50.934;6.934;2022-12-18T05:08:46;-4.30;99.90
5174;DHT22;2606;50.934;6.934;2022-12-18T05:11:14;-4.30;99.90
5174;DHT22;2606;50.934;6.934;2022-12-18T05:13:44;-4.30;99.90
5174;DHT22;2606;50.934;6.934;2022-12-18T05:16:10;-4.40;99.90
5174;DHT22;2606;50.934;6.934;2022-12-18T05:18:37;-4.30;99.90
5174;DHT22;2606;50.934;6.934;2022-12-18T05:21:03;-4.40;99.90
5174;DHT22;2606;50.934;6.934;2022-12-18T05:23:28;-4.40;99.90
5174;DHT22;2606;50.934;6.934;2022-12-18T05:28:21;-4.30;99.90
5174;DHT22;2606;50.934;6.934;2022-12-18T05:30:54;-4.30;99.90
5174;DHT22;2606;50.934;6.934;2022-12-18T05:33:21;-4.30;99.90
5174;DHT22;2606;50.934;6.934;2022-12-18T05:35:53;-4.30;99.90
5174;DHT22;2606;50.934;6.934;2022-12-18T05:38:20;-4.30;99.90
5174;DHT22;2606;50.934;6.934;2022-12-18T05:40:48;-4.30;99.90
5174;DHT22;2606;50.934;6.934;2022-12-18T05:43:13;-4.30;99.90
5174;DHT22;2606;50.934;6.934;2022-12-18T05:45:40;-4.30;99.90
5174;DHT22;2606;50.934;6.934;2022-12-18T05:48:06;-4.20;99.90
5174;DHT22;2606;50.934;6.934;2022-12-18T05:50:36;-4.30;99.90
5174;DHT22;2606;50.934;6.934;2022-12-18T05:53:03;-4.30;99.90
5174;DHT22;2606;50.934;6.934;2022-12-18T05:55:32;-4.30;99.90
5174;DHT22;2606;50.934;6.934;2022-12-18T05:57:57;-4.30;99.90
5174;DHT22;2606;50.934;6.934;2022-12-18T06:00:23;-4.20;99.90
5174;DHT22;2606;50.934;6.934;2022-12-18T06:02:49;-4.20;99.90
5174;DHT22;2606;50.934;6.934;2022-12-18T06:05:14;-4.20;99.90
5174;DHT22;2606;50.934;6.934;2022-12-18T06:07:40;-4.20;99.90
5174;DHT22;2606;50.934;6.934;2022-12-18T06:10:06;-4.20;99.90
5174;DHT22;2606;50.934;6.934;2022-12-18T06:12:32;-4.20;99.90
5174;DHT22;2606;50.934;6.934;2022-12-18T06:14:59;-4.20;99.90
5174;DHT22;2606;50.934;6.934;2022-12-18T06:17:30;-4.20;99.90
5174;DHT22;2606;50.934;6.934;2022-12-18T06:19:57;-4.30;99.90
5174;DHT22;2606;50.934;6.934;2022-12-18T06:22:23;-4.30;99.90
5174;DHT22;2606;50.934;6.934;2022-12-18T06:24:48;-4.30;99.90
5174;DHT22;2606;50.934;6.934;2022-12-18T06:27:14;-4.30;99.90
5174;DHT22;2606;50.934;6.934;2022-12-18T06:29:40;-4.30;99.90
5174;DHT22;2606;50.934;6.934;2022-12-18T06:32:05;-4.30;99.90
5174;DHT22;2606;50.934;6.934;2022-12-18T06:34:32;-4.30;99.90
5174;DHT22;2606;50.934;6.934;2022-12-18T06:36:58;-4.30;99.90
5174;DHT22;2606;50.934;6.934;2022-12-18T06:39:24;-4.30;99.90
5174;DHT22;2606;50.934;6.934;2022-12-18T06:41:49;-4.30;99.90
5174;DHT22;2606;50.934;6.934;2022-12-18T06:44:15;-4.30;99.90
5174;DHT22;2606;50.934;6.934;2022-12-18T06:46:41;-4.30;99.90
5174;DHT22;2606;50.934;6.934;2022-12-18T06:49:06;-4.30;99.90
5174;DHT22;2606;50.934;6.934;2022-12-18T06:51:34;-4.30;99.90
5174;DHT22;2606;50.934;6.934;2022-12-18T06:54:00;-4.30;99.90
5174;DHT22;2606;50.934;6.934;2022-12-18T06:56:25;-4.30;99.90
5174;DHT22;2606;50.934;6.934;2022-12-18T06:58:51;-4.30;99.90
5174;DHT22;2606;50.934;6.934;2022-12-18T07:01:16;-4.30;99.90
5174;DHT22;2606;50.934;6.934;2022-12-18T07:03:42;-4.30;99.90
5174;DHT22;2606;50.934;6.934;2022-12-18T07:06:16;-4.30;99.90
5174;DHT22;2606;50.934;6.934;2022-12-18T07:08:43;-4.40;99.90
5174;DHT22;2606;50.934;6.934;2022-12-18T07:11:08;-4.40;99.90
5174;DHT22;2606;50.934;6.934;2022-12-18T07:13:34;-4.40;99.90
5174;DHT22;2606;50.934;6.934;2022-12-18T07:16:11;-4.40;99.90
5174;DHT22;2606;50.934;6.934;2022-12-18T07:18:37;-4.40;99.90
5174;DHT22;2606;50.934;6.934;2022-12-18T07:21:04;-4.40;99.90
5174;DHT22;2606;50.934;6.934;2022-12-18T07:23:32;-4.40;99.90
5174;DHT22;2606;50.934;6.934;2022-12-18T07:26:06;-4.40;99.90
5174;DHT22;2606;50.934;6.934;2022-12-18T07:28:33;-4.40;99.90
5174;DHT22;2606;50.934;6.934;2022-12-18T07:31:06;-4.40;99.90
5174;DHT22;2606;50.934;6.934;2022-12-18T07:33:33;-4.30;99.90
5174;DHT22;2606;50.934;6.934;2022-12-18T07:36:05;-4.40;99.90
5174;DHT22;2606;50.934;6.934;2022-12-18T07:38:33;-4.40;99.90
5174;DHT22;2606;50.934;6.934;2022-12-18T07:41:03;-4.40;99.90
5174;DHT22;2606;50.934;6.934;2022-12-18T07:43:29;-4.40;99.90
5174;DHT22;2606;50.934;6.934;2022-12-18T07:45:55;-4.40;99.90
5174;DHT22;2606;50.934;6.934;2022-12-18T07:48:21;-4.30;99.90
5174;DHT22;2606;50.934;6.934;2022-12-18T07:50:46;-4.40;99.90
5174;DHT22;2606;50.934;6.934;2022-12-18T07:53:12;-4.20;99.90
5174;DHT22;2606;50.934;6.934;2022-12-18T07:55:37;-4.30;99.90
5174;DHT22;2606;50.934;6.934;2022-12-18T07:58:03;-4.30;99.90
5174;DHT22;2606;50.934;6.934;2022-12-18T08:00:30;-4.30;99.90
5174;DHT22;2606;50.934;6.934;2022-12-18T08:02:56;-4.30;99.90
5174;DHT22;2606;50.934;6.934;2022-12-18T08:05:22;-4.20;99.90
5174;DHT22;2606;50.934;6.934;2022-12-18T08:07:47;-4.20;99.90
5174;DHT22;2606;50.934;6.934;2022-12-18T08:10:13;-4.20;99.90
5174;DHT22;2606;50.934;6.934;2022-12-18T08:12:39;-4.20;99.90
5174;DHT22;2606;50.934;6.934;2022-12-18T08:15:05;-4.10;99.90
5174;DHT22;2606;50.934;6.934;2022-12-18T08:17:31;-4.10;99.90
5174;DHT22;2606;50.934;6.934;2022-12-18T08:19:56;-4.10;99.90
5174;DHT22;2606;50.934;6.934;2022-12-18T08:22:22;-4.00;99.90
5174;DHT22;2606;50.934;6.934;2022-12-18T08:24:47;-3.90;99.90
5174;DHT22;2606;50.934;6.934;2022-12-18T08:27:13;-3.70;99.90
5174;DHT22;2606;50.934;6.934;2022-12-18T08:29:39;-3.50;99.90
5174;DHT22;2606;50.934;6.934;2022-12-18T08:32:04;-3.30;99.90
5174;DHT22;2606;50.934;6.934;2022-12-18T08:34:30;-3.10;99.90
5174;DHT22;2606;50.934;6.934;2022-12-18T08:36:55;-2.90;99.90
5174;DHT22;2606;50.934;6.934;2022-12-18T08:39:21;-2.80;99.90
5174;DHT22;2606;50.934;6.934;2022-12-18T08:41:46;-2.70;99.90
5174;DHT22;2606;50.934;6.934;2022-12-18T08:44:32;-2.80;99.90
5174;DHT22;2606;50.934;6.934;2022-12-18T08:47:06;-2.80;99.90
5174;DHT22;2606;50.934;6.934;2022-12-18T08:49:33;-2.90;99.90
5174;DHT22;2606;50.934;6.934;2022-12-18T08:51:59;-2.90;99.90
5174;DHT22;2606;50.934;6.934;2022-12-18T08:54:25;-3.00;99.90
5174;DHT22;2606;50.934;6.934;2022-12-18T08:56:51;-3.00;99.90
5174;DHT22;2606;50.934;6.934;2022-12-18T08:59:17;-3.00;99.90
5174;DHT22;2606;50.934;6.934;2022-12-18T09:01:43;-3.10;99.90
5174;DHT22;2606;50.934;6.934;2022-12-18T09:04:09;-3.00;99.90
5174;DHT22;2606;50.934;6.934;2022-12-18T09:06:35;-3.10;99.90
5174;DHT22;2606;50.934;6.934;2022-12-18T09:09:02;-3.00;99.90
5174;DHT22;2606;50.934;6.934;2022-12-18T09:11:29;-3.00;99.90
5174;DHT22;2606;50.934;6.934;2022-12-18T09:13:54;-3.00;99.90
5174;DHT22;2606;50.934;6.934;2022-12-18T09:16:21;-2.90;99.90
5174;DHT22;2606;50.934;6.934;2022-12-18T09:18:47;-2.90;99.90
5174;DHT22;2606;50.934;6.934;2022-12-18T09:21:20;-2.90;99.90
5174;DHT22;2606;50.934;6.934;2022-12-18T09:23:53;-2.80;99.90
5174;DHT22;2606;50.934;6.934;2022-12-18T09:26:20;-2.70;99.90
5174;DHT22;2606;50.934;6.934;2022-12-18T09:28:45;-2.70;99.90
5174;DHT22;2606;50.934;6.934;2022-12-18T09:31:14;-2.70;99.90
5174;DHT22;2606;50.934;6.934;2022-12-18T09:33:41;-2.70;99.90
5174;DHT22;2606;50.934;6.934;2022-12-18T09:36:10;-2.60;99.90
5174;DHT22;2606;50.934;6.934;2022-12-18T09:38:43;-2.60;99.90
5174;DHT22;2606;50.934;6.934;2022-12-18T09:46:51;-2.30;99.90
5174;DHT22;2606;50.934;6.934;2022-12-18T09:49:21;-2.20;99.90
5174;DHT22;2606;50.934;6.934;2022-12-18T09:51:56;-2.20;99.90
5174;DHT22;2606;50.934;6.934;2022-12-18T09:54:26;-2.20;99.90
5174;DHT22;2606;50.934;6.934;2022-12-18T09:56:55;-2.10;99.90
5174;DHT22;2606;50.934;6.934;2022-12-18T09:59:25;-2.00;99.90
5174;DHT22;2606;50.934;6.934;2022-12-18T10:01:52;-2.00;99.90
5174;DHT22;2606;50.934;6.934;2022-12-18T10:04:17;-2.00;99.90
5174;DHT22;2606;50.934;6.934;2022-12-18T10:06:54;-1.90;99.90
5174;DHT22;2606;50.934;6.934;2022-12-18T10:09:37;-1.90;99.90
5174;DHT22;2606;50.934;6.934;2022-12-18T10:14:57;-1.70;99.90
5174;DHT22;2606;50.934;6.934;2022-12-18T10:26:07;-1.50;99.90
5174;DHT22;2606;50.934;6.934;2022-12-18T10:28:39;-1.40;99.90
5174;DHT22;2606;50.934;6.934;2022-12-18T10:31:17;-1.40;99.90
5174;DHT22;2606;50.934;6.934;2022-12-18T10:33:43;-1.30;99.90
5174;DHT22;2606;50.934;6.934;2022-12-18T10:36:08;-1.30;99.90
5174;DHT22;2606;50.934;6.934;2022-12-18T10:38:35;-1.30;99.90
5174;DHT22;2606;50.934;6.934;2022-12-18T10:44:22;-1.10;99.90
5174;DHT22;2606;50.934;6.934;2022-12-18T10:47:02;-1.10;99.90
5174;DHT22;2606;50.934;6.934;2022-12-18T10:49:33;-1.00;99.90
5174;DHT22;2606;50.934;6.934;2022-12-18T10:52:18;-0.90;99.90
5174;DHT22;2606;50.934;6.934;2022-12-18T10:54:57;-0.90;99.90
5174;DHT22;2606;50.934;6.934;2022-12-18T10:57:35;-0.90;99.90
5174;DHT22;2606;50.934;6.934;2022-12-18T11:02:47;-0.80;99.90
5174;DHT22;2606;50.934;6.934;2022-12-18T11:05:33;-0.80;99.90
5174;DHT22;2606;50.934;6.934;2022-12-18T11:08:02;-0.70;99.90
5174;DHT22;2606;50.934;6.934;2022-12-18T11:10:29;-0.70;99.90
5174;DHT22;2606;50.934;6.934;2022-12-18T11:12:57;-0.60;99.90
5174;DHT22;2606;50.934;6.934;2022-12-18T11:15:34;-0.60;99.90
5174;DHT22;2606;50.934;6.934;2022-12-18T11:17:59;-0.60;99.90
5174;DHT22;2606;50.934;6.934;2022-12-18T11:20:34;-0.60;99.90
5174;DHT22;2606;50.934;6.934;2022-12-18T11:23:03;-0.60;99.90
5174;DHT22;2606;50.934;6.934;2022-12-18T11:25:31;-0.50;99.90
5174;DHT22;2606;50.934;6.934;2022-12-18T11:33:43;-0.40;99.90
5174;DHT22;2606;50.934;6.934;2022-12-18T11:36:10;-0.40;99.90
5174;DHT22;2606;50.934;6.934;2022-12-18T11:38:41;-0.40;99.90
5174;DHT22;2606;50.934;6.934;2022-12-18T11:41:34;-0.40;99.90
5174;DHT22;2606;50.934;6.934;2022-12-18T11:44:28;-0.40;99.90
5174;DHT22;2606;50.934;6.934;2022-12-18T11:47:03;-0.40;99.90
5174;DHT22;2606;50.934;6.934;2022-12-18T11:49:35;-0.40;99.90
5174;DHT22;2606;50.934;6.934;2022-12-18T11:52:23;-0.40;99.90
5174;DHT22;2606;50.934;6.934;2022-12-18T11:54:56;-0.40;99.90
5174;DHT22;2606;50.934;6.934;2022-12-18T11:57:27;-0.30;99.90
5174;DHT22;2606;50.934;6.934;2022-12-18T12:00:15;-0.40;99.90
5174;DHT22;2606;50.934;6.934;2022-12-18T12:13:33;-0.20;99.90
5174;DHT22;2606;50.934;6.934;2022-12-18T12:26:57;-0.20;99.90
5174;DHT22;2606;50.934;6.934;2022-12-18T12:29:36;-0.20;99.90
5174;DHT22;2606;50.934;6.934;2022-12-18T12:35:11;-0.20;99.90
5174;DHT22;2606;50.934;6.934;2022-12-18T12:38:28;-0.20;99.90
5174;DHT22;2606;50.934;6.934;2022-12-18T12:40:31;-0.20;99.90
5174;DHT22;2606;50.934;6.934;2022-12-18T12:43:12;-0.20;99.90
5174;DHT22;2606;50.934;6.934;2022-12-18T12:45:46;-0.20;99.90
5174;DHT22;2606;50.934;6.934;2022-12-18T12:48:23;-0.10;99.90
5174;DHT22;2606;50.934;6.934;2022-12-18T12:50:50;-0.10;99.90
5174;DHT22;2606;50.934;6.934;2022-12-18T12:53:42;-0.10;99.80
5174;DHT22;2606;50.934;6.934;2022-12-18T12:56:11;-0.10;99.90
5174;DHT22;2606;50.934;6.934;2022-12-18T13:01:36;-0.20;99.90
5174;DHT22;2606;50.934;6.934;2022-12-18T13:04:27;-0.20;99.90
5174;DHT22;2606;50.934;6.934;2022-12-18T13:07:20;-0.10;99.90
5174;DHT22;2606;50.934;6.934;2022-12-18T13:10:12;-0.20;99.90
5174;DHT22;2606;50.934;6.934;2022-12-18T13:15:44;-0.20;99.90
5174;DHT22;2606;50.934;6.934;2022-12-18T13:20:38;-0.20;99.90
5174;DHT22;2606;50.934;6.934;2022-12-18T13:31:07;-0.10;99.90
5174;DHT22;2606;50.934;6.934;2022-12-18T13:33:46;-0.10;99.90
5174;DHT22;2606;50.934;6.934;2022-12-18T13:39:09;-0.10;99.90
5174;DHT22;2606;50.934;6.934;2022-12-18T13:41:35;-0.10;99.90
5174;DHT22;2606;50.934;6.934;2022-12-18T13:44:12;-0.10;99.90
5174;DHT22;2606;50.934;6.934;2022-12-18T13:46:46;-0.10;99.90
5174;DHT22;2606;50.934;6.934;2022-12-18T13:51:43;-0.20;99.90
5174;DHT22;2606;50.934;6.934;2022-12-18T13:56:50;-0.10;99.90
5174;DHT22;2606;50.934;6.934;2022-12-18T13:59:26;-0.10;99.90
5174;DHT22;2606;50.934;6.934;2022-12-18T14:01:56;-0.20;99.90
5174;DHT22;2606;50.934;6.934;2022-12-18T14:04:34;-0.10;99.90
5174;DHT22;2606;50.934;6.934;2022-12-18T14:07:10;-0.10;99.90
5174;DHT22;2606;50.934;6.934;2022-12-18T14:09:46;0.00;99.90
5174;DHT22;2606;50.934;6.934;2022-12-18T14:12:29;-0.10;99.90
5174;DHT22;2606;50.934;6.934;2022-12-18T14:20:43;-0.10;99.90
5174;DHT22;2606;50.934;6.934;2022-12-18T14:23:36;-0.10;99.90
5174;DHT22;2606;50.934;6.934;2022-12-18T14:26:19;-0.10;99.90
5174;DHT22;2606;50.934;6.934;2022-12-18T14:28:45;-0.20;99.90
5174;DHT22;2606;50.934;6.934;2022-12-18T14:31:22;-0.20;99.90
5174;DHT22;2606;50.934;6.934;2022-12-18T14:33:51;-0.10;99.90
5174;DHT22;2606;50.934;6.934;2022-12-18T14:36:22;-0.10;99.90
5174;DHT22;2606;50.934;6.934;2022-12-18T14:38:56;-0.10;99.90
5174;DHT22;2606;50.934;6.934;2022-12-18T14:41:23;-0.20;99.90
5174;DHT22;2606;50.934;6.934;2022-12-18T14:43:51;-0.20;99.90
5174;DHT22;2606;50.934;6.934;2022-12-18T14:46:36;-0.20;99.90
5174;DHT22;2606;50.934;6.934;2022-12-18T14:51:53;-0.20;99.90
5174;DHT22;2606;50.934;6.934;2022-12-18T14:54:20;-0.30;99.90
5174;DHT22;2606;50.934;6.934;2022-12-18T14:57:11;-0.30;99.90
5174;DHT22;2606;50.934;6.934;2022-12-18T14:59:43;-0.30;99.90
5174;DHT22;2606;50.934;6.934;2022-12-18T15:02:26;-0.30;99.90
5174;DHT22;2606;50.934;6.934;2022-12-18T15:07:42;-0.30;99.90
5174;DHT22;2606;50.934;6.934;2022-12-18T15:10:45;-0.30;99.90
5174;DHT22;2606;50.934;6.934;2022-12-18T15:20:49;-0.50;99.90
5174;DHT22;2606;50.934;6.934;2022-12-18T15:23:35;-0.40;99.90
5174;DHT22;2606;50.934;6.934;2022-12-18T15:26:06;-0.50;99.90
5174;DHT22;2606;50.934;6.934;2022-12-18T15:28:36;-0.60;99.90
5174;DHT22;2606;50.934;6.934;2022-12-18T15:33:36;-0.50;99.90
5174;DHT22;2606;50.934;6.934;2022-12-18T15:36:05;-0.60;99.90
5174;DHT22;2606;50.934;6.934;2022-12-18T15:38:33;-0.60;99.90
5174;DHT22;2606;50.934;6.934;2022-12-18T15:40:59;-0.60;99.90
5174;DHT22;2606;50.934;6.934;2022-12-18T15:43:29;-0.60;99.90
5174;DHT22;2606;50.934;6.934;2022-12-18T15:46:06;-0.60;99.90
5174;DHT22;2606;50.934;6.934;2022-12-18T15:48:34;-0.60;99.90
5174;DHT22;2606;50.934;6.934;2022-12-18T15:51:00;-0.60;99.90
5174;DHT22;2606;50.934;6.934;2022-12-18T15:53:30;-0.60;99.90
5174;DHT22;2606;50.934;6.934;2022-12-18T15:55:57;-0.60;99.90
5174;DHT22;2606;50.934;6.934;2022-12-18T15:58:41;-0.60;99.90
5174;DHT22;2606;50.934;6.934;2022-12-18T16:01:09;-0.70;99.90
5174;DHT22;2606;50.934;6.934;2022-12-18T16:03:35;-0.70;99.90
5174;DHT22;2606;50.934;6.934;2022-12-18T16:06:01;-0.60;99.90
5174;DHT22;2606;50.934;6.934;2022-12-18T16:08:28;-0.70;99.90
5174;DHT22;2606;50.934;6.934;2022-12-18T16:10:55;-0.70;99.90
5174;DHT22;2606;50.934;6.934;2022-12-18T16:13:20;-0.80;99.90
5174;DHT22;2606;50.934;6.934;2022-12-18T16:15:46;-0.80;99.90
5174;DHT22;2606;50.934;6.934;2022-12-18T16:18:12;-0.80;99.90
5174;DHT22;2606;50.934;6.934;2022-12-18T16:20:38;-0.80;99.90
5174;DHT22;2606;50.934;6.934;2022-12-18T16:23:04;-0.80;99.90
5174;DHT22;2606;50.934;6.934;2022-12-18T16:25:29;-0.70;99.90
5174;DHT22;2606;50.934;6.934;2022-12-18T16:27:56;-0.70;99.90
5174;DHT22;2606;50.934;6.934;2022-12-18T16:30:24;-0.80;99.90
5174;DHT22;2606;50.934;6.934;2022-12-18T16:32:52;-0.80;99.90
5174;DHT22;2606;50.934;6.934;2022-12-18T16:35:18;-0.70;99.90
5174;DHT22;2606;50.934;6.934;2022-12-18T16:37:44;-0.70;99.90
5174;DHT22;2606;50.934;6.934;2022-12-18T16:40:12;-0.80;99.90
5174;DHT22;2606;50.934;6.934;2022-12-18T16:42:40;-0.70;99.90
5174;DHT22;2606;50.934;6.934;2022-12-18T16:45:08;-0.70;99.90
5174;DHT22;2606;50.934;6.934;2022-12-18T16:47:34;-0.70;99.90
5174;DHT22;2606;50.934;6.934;2022-12-18T16:50:00;-0.70;99.90
5174;DHT22;2606;50.934;6.934;2022-12-18T16:52:26;-0.70;99.90
5174;DHT22;2606;50.934;6.934;2022-12-18T16:54:52;-0.70;99.90
5174;DHT22;2606;50.934;6.934;2022-12-18T16:57:19;-0.70;99.90
5174;DHT22;2606;50.934;6.934;2022-12-18T16:59:45;-0.70;99.90
5174;DHT22;2606;50.934;6.934;2022-12-18T17:02:16;-0.70;99.90
5174;DHT22;2606;50.934;6.934;2022-12-18T17:04:43;-0.70;99.90
5174;DHT22;2606;50.934;6.934;2022-12-18T17:07:10;-0.70;99.90
5174;DHT22;2606;50.934;6.934;2022-12-18T17:09:36;-0.80;99.90
5174;DHT22;2606;50.934;6.934;2022-12-18T17:12:02;-0.80;99.90
5174;DHT22;2606;50.934;6.934;2022-12-18T17:14:28;-0.80;99.90
5174;DHT22;2606;50.934;6.934;2022-12-18T17:16:54;-0.80;99.90
5174;DHT22;2606;50.934;6.934;2022-12-18T17:19:22;-0.80;99.90
5174;DHT22;2606;50.934;6.934;2022-12-18T17:21:49;-0.80;99.90
5174;DHT22;2606;50.934;6.934;2022-12-18T17:24:15;-0.80;99.90
5174;DHT22;2606;50.934;6.934;2022-12-18T17:26:41;-0.70;99.90
5174;DHT22;2606;50.934;6.934;2022-12-18T17:29:06;-0.80;99.90
5174;DHT22;2606;50.934;6.934;2022-12-18T17:31:33;-0.80;99.90
5174;DHT22;2606;50.934;6.934;2022-12-18T17:34:01;-0.80;99.90
5174;DHT22;2606;50.934;6.934;2022-12-18T17:36:27;-0.80;99.90
5174;DHT22;2606;50.934;6.934;2022-12-18T17:38:58;-0.80;99.90
5174;DHT22;2606;50.934;6.934;2022-12-18T17:41:25;-0.80;99.90
5174;DHT22;2606;50.934;6.934;2022-12-18T17:43:52;-0.80;99.90
5174;DHT22;2606;50.934;6.934;2022-12-18T17:46:18;-0.80;99.90
5174;DHT22;2606;50.934;6.934;2022-12-18T17:48:44;-0.80;99.90
5174;DHT22;2606;50.934;6.934;2022-12-18T17:51:11;-0.80;99.90
5174;DHT22;2606;50.934;6.934;2022-12-18T17:53:37;-0.70;99.90
5174;DHT22;2606;50.934;6.934;2022-12-18T17:56:04;-0.80;99.90
5174;DHT22;2606;50.934;6.934;2022-12-18T17:58:36;-0.80;99.90
5174;DHT22;2606;50.934;6.934;2022-12-18T18:01:38;-0.70;99.90
5174;DHT22;2606;50.934;6.934;2022-12-18T18:04:11;-0.70;99.90
5174;DHT22;2606;50.934;6.934;2022-12-18T18:06:37;-0.70;99.90
5174;DHT22;2606;50.934;6.934;2022-12-18T18:09:02;-0.70;99.90
5174;DHT22;2606;50.934;6.934;2022-12-18T18:11:28;-0.70;99.90
5174;DHT22;2606;50.934;6.934;2022-12-18T18:14:15;-0.70;99.90
5174;DHT22;2606;50.934;6.934;2022-12-18T18:16:44;-0.70;99.90